createdAt,value
2018-07-16T13:32:36.801Z,32.70
2018-07-16T13:35:04.938Z,32.80
2018-07-16T13:37:33.006Z,32.70
2018-07-16T13:42:29.109Z,32.60
2018-07-16T13:44:57.343Z,32.60
2018-07-16T13:49:53.598Z,32.70
2018-07-16T13:54:49.759Z,32.60
2018-07-16T13:57:18.265Z,32.40
2018-07-16T13:59:46.514Z,32.30
2018-07-16T14:02:14.893Z,32.30
2018-07-16T14:04:42.957Z,32.40
2018-07-16T14:07:11.085Z,32.40
2018-07-16T14:09:39.104Z,32.40
2018-07-16T14:12:07.189Z,32.60
2018-07-16T14:14:35.254Z,32.60
2018-07-16T14:17:03.315Z,32.50
2018-07-16T14:19:31.427Z,32.10
2018-07-16T14:21:59.496Z,32.10
2018-07-16T14:24:27.666Z,32.10
2018-07-16T14:26:57.024Z,32.20
2018-07-16T14:29:25.401Z,32.30
2018-07-16T14:31:53.576Z,32.40
2018-07-16T14:34:21.658Z,32.20
2018-07-16T14:36:49.778Z,32.20
2018-07-16T14:41:46.810Z,32.10
2018-07-16T14:44:14.874Z,32.10
2018-07-16T14:46:42.955Z,32.10
2018-07-16T14:51:39.127Z,32.30
2018-07-16T14:56:34.950Z,32.10
2018-07-16T14:59:03.305Z,32.00
2018-07-16T15:01:31.375Z,32.00
2018-07-16T15:03:59.455Z,31.90
2018-07-16T15:06:27.528Z,31.70
2018-07-16T15:08:55.589Z,31.60
2018-07-16T15:13:52.087Z,31.60
2018-07-16T15:16:21.381Z,31.60
2018-07-16T15:18:49.393Z,31.40
2018-07-16T15:21:17.855Z,31.20
2018-07-16T15:23:45.534Z,31.10
2018-07-16T15:26:13.646Z,30.90
2018-07-16T15:28:42.918Z,30.80
2018-07-16T15:31:11.095Z,30.80
2018-07-16T15:33:39.645Z,30.80
2018-07-16T15:36:08.718Z,30.80
2018-07-16T15:43:32.870Z,30.40
2018-07-16T15:48:29.136Z,30.00
2018-07-16T15:50:57.415Z,29.90
2018-07-16T15:55:53.527Z,30.00
2018-07-16T15:58:21.657Z,30.00
2018-07-16T16:00:49.770Z,29.80
2018-07-16T16:03:18.079Z,29.70
2018-07-16T16:05:46.214Z,29.90
2018-07-16T16:08:14.535Z,29.80
2018-07-16T16:13:10.719Z,29.50
2018-07-16T16:15:38.781Z,29.40
2018-07-16T16:18:06.797Z,29.50
2018-07-16T16:20:34.870Z,29.50
2018-07-16T16:23:02.997Z,29.40
2018-07-16T16:27:59.495Z,29.30
2018-07-16T16:32:55.600Z,29.10
2018-07-16T16:37:51.505Z,29.20
2018-07-16T16:40:19.528Z,29.10
2018-07-16T16:42:47.879Z,29.00
2018-07-16T16:45:16.194Z,28.80
2018-07-16T16:47:44.283Z,28.70
2018-07-16T16:50:12.376Z,28.60
2018-07-16T16:52:40.571Z,28.70
2018-07-16T16:55:08.828Z,28.50
2018-07-16T17:00:05.315Z,28.30
2018-07-16T17:05:01.424Z,27.90
2018-07-16T17:07:30.723Z,27.70
2018-07-16T17:09:58.748Z,27.70
2018-07-16T17:12:27.522Z,27.80
2018-07-16T17:17:23.613Z,27.90
2018-07-16T17:22:19.785Z,27.60
2018-07-16T17:24:48.230Z,27.70
2018-07-16T17:27:16.508Z,27.80
2018-07-16T17:29:44.529Z,27.50
2018-07-16T17:32:12.753Z,27.10
2018-07-16T17:34:41.263Z,26.90
2018-07-16T17:37:09.442Z,26.90
2018-07-16T17:39:37.719Z,26.60
2018-07-16T17:44:34.141Z,26.40
2018-07-16T17:47:02.315Z,26.40
2018-07-16T17:49:30.378Z,26.40
2018-07-16T17:51:58.725Z,26.30
2018-07-16T17:56:54.850Z,26.50
2018-07-16T17:59:23.043Z,26.60
2018-07-16T18:01:51.435Z,26.50
2018-07-16T18:04:19.563Z,26.40
2018-07-16T18:06:47.739Z,26.20
2018-07-16T18:09:15.923Z,25.90
2018-07-16T18:16:40.412Z,26.00
2018-07-16T18:19:08.774Z,26.10
2018-07-16T18:21:36.817Z,26.30
2018-07-16T18:26:32.837Z,26.40
2018-07-16T18:29:01.463Z,26.40
2018-07-16T18:31:29.832Z,26.30
2018-07-16T18:36:25.858Z,26.20
2018-07-16T18:38:53.969Z,26.20
2018-07-16T18:41:21.992Z,26.30
2018-07-16T18:43:50.103Z,26.30
2018-07-16T18:46:18.125Z,26.10
2018-07-16T18:48:46.259Z,26.00
2018-07-16T18:51:14.786Z,25.90
2018-07-16T18:53:42.989Z,25.80
2018-07-16T18:56:11.030Z,25.80
2018-07-16T19:06:03.431Z,25.80
2018-07-16T19:08:31.789Z,25.70
2018-07-16T19:18:24.058Z,25.80
2018-07-16T19:23:20.507Z,25.80
2018-07-16T19:28:16.634Z,25.80
2018-07-16T19:30:44.730Z,25.80
2018-07-16T19:38:08.975Z,25.90
2018-07-16T19:40:37.234Z,25.80
2018-07-16T19:43:05.467Z,25.60
2018-07-16T19:45:33.750Z,25.60
2018-07-16T19:48:02.222Z,25.60
2018-07-16T19:50:30.445Z,25.60
2018-07-16T19:52:58.505Z,25.60
2018-07-16T19:55:26.644Z,25.50
2018-07-16T20:02:50.895Z,25.30
2018-07-16T20:07:47.261Z,25.20
2018-07-16T20:10:15.352Z,25.20
2018-07-16T20:15:17.683Z,25.40
2018-07-16T20:17:46.102Z,25.50
2018-07-16T20:20:14.243Z,25.40
2018-07-16T20:22:42.550Z,25.20
2018-07-16T20:27:38.706Z,24.80
2018-07-16T20:32:36.260Z,24.80
2018-07-16T20:37:33.464Z,24.60
2018-07-16T20:40:01.819Z,24.60
2018-07-16T20:42:30.186Z,24.50
2018-07-16T20:44:58.185Z,24.40
2018-07-16T20:47:26.287Z,24.20
2018-07-16T20:49:54.768Z,24.20
2018-07-16T20:54:50.922Z,24.10
2018-07-16T20:57:19.118Z,24.30
2018-07-16T20:59:47.234Z,24.30
2018-07-16T21:02:15.335Z,24.20
2018-07-16T21:04:43.386Z,24.10
2018-07-16T21:07:12.264Z,24.00
2018-07-16T21:09:40.397Z,24.00
2018-07-16T21:12:08.529Z,24.00
2018-07-16T21:17:04.943Z,23.80
2018-07-16T21:24:29.038Z,23.60
2018-07-16T21:26:57.862Z,23.60
2018-07-16T21:29:25.961Z,23.60
2018-07-16T21:34:22.368Z,23.40
2018-07-16T21:36:50.495Z,23.40
2018-07-16T21:39:18.823Z,23.30
2018-07-16T21:41:46.869Z,23.20
2018-07-16T21:46:43.093Z,23.00
2018-07-16T21:49:11.349Z,23.00
2018-07-16T21:51:39.457Z,22.90
2018-07-16T21:56:35.724Z,22.80
2018-07-16T21:59:04.371Z,22.80
2018-07-16T22:01:32.782Z,22.70
2018-07-16T22:04:01.620Z,22.70
2018-07-16T22:08:57.797Z,22.70
2018-07-16T22:13:54.991Z,22.70
2018-07-16T22:16:23.223Z,22.60
2018-07-16T22:18:51.475Z,22.50
2018-07-16T22:21:19.722Z,22.50
2018-07-16T22:23:47.847Z,22.40
2018-07-16T22:26:16.195Z,22.10
2018-07-16T22:28:44.554Z,22.10
2018-07-16T22:33:40.703Z,22.10
2018-07-16T22:36:08.816Z,22.10
2018-07-16T22:43:33.894Z,21.90
2018-07-16T22:46:01.919Z,21.90
2018-07-16T22:50:58.126Z,21.90
2018-07-16T22:55:55.479Z,21.80
2018-07-16T22:58:23.513Z,21.90
2018-07-16T23:03:19.702Z,21.80
2018-07-16T23:05:47.783Z,21.80
2018-07-16T23:08:17.321Z,21.90
2018-07-16T23:10:45.486Z,22.00
2018-07-16T23:20:38.464Z,22.00
2018-07-16T23:23:06.682Z,22.00
2018-07-16T23:25:34.862Z,21.90
2018-07-16T23:28:03.130Z,21.80
2018-07-16T23:32:59.278Z,21.60
2018-07-16T23:35:27.338Z,21.60
2018-07-16T23:37:55.560Z,21.70
2018-07-16T23:40:23.622Z,21.80
2018-07-16T23:42:51.924Z,21.70
2018-07-16T23:45:20.307Z,21.60
2018-07-16T23:47:48.600Z,21.50
2018-07-16T23:52:44.814Z,21.40
2018-07-16T23:55:13.512Z,21.40
2018-07-16T23:57:42.219Z,21.40
